sensor_id;sensor_type;location;lat;lon;timestamp;pressure;altitude;pressure_sealevel;temperature;humidity
61537;BME280;48695;53.480;-6.300;2022-12-18T00:02:20;100845.47;;;5.10;68.38
61537;BME280;48695;53.480;-6.300;2022-12-18T00:04:47;100849.78;;;5.10;68.20
61537;BME280;48695;53.480;-6.300;2022-12-18T00:07:12;100852.38;;;5.08;68.63
61537;BME280;48695;53.480;-6.300;2022-12-18T00:09:38;100841.19;;;5.08;68.46
61537;BME280;48695;53.480;-6.300;2022-12-18T00:12:03;100829.06;;;5.01;68.57
61537;BME280;48695;53.480;-6.300;2022-12-18T00:14:29;100829.94;;;5.03;68.55
61537;BME280;48695;53.480;-6.300;2022-12-18T00:16:54;100828.19;;;5.02;68.45
61537;BME280;48695;53.480;-6.300;2022-12-18T00:19:19;100837.69;;;5.01;68.83
61537;BME280;48695;53.480;-6.300;2022-12-18T00:21:45;100839.41;;;5.01;68.82
61537;BME280;48695;53.480;-6.300;2022-12-18T00:24:11;100842.00;;;5.01;68.63
61537;BME280;48695;53.480;-6.300;2022-12-18T00:26:37;100842.00;;;4.94;68.85
61537;BME280;48695;53.480;-6.300;2022-12-18T00:29:10;100848.03;;;5.00;68.50
61537;BME280;48695;53.480;-6.300;2022-12-18T00:31:36;100840.28;;;4.98;68.64
61537;BME280;48695;53.480;-6.300;2022-12-18T00:34:02;100844.59;;;4.98;68.63
61537;BME280;48695;53.480;-6.300;2022-12-18T00:36:33;100836.78;;;4.91;68.77
61537;BME280;48695;53.480;-6.300;2022-12-18T00:39:01;100846.31;;;4.99;69.04
61537;BME280;48695;53.480;-6.300;2022-12-18T00:41:27;100846.31;;;4.99;69.21
61537;BME280;48695;53.480;-6.300;2022-12-18T00:44:13;100820.41;;;4.86;69.05
61537;BME280;48695;53.480;-6.300;2022-12-18T00:46:39;100848.06;;;5.06;69.29
61537;BME280;48695;53.480;-6.300;2022-12-18T00:49:05;100834.25;;;5.07;69.55
61537;BME280;48695;53.480;-6.300;2022-12-18T00:51:30;100834.28;;;5.13;69.41
61537;BME280;48695;53.480;-6.300;2022-12-18T00:53:56;100835.16;;;5.19;69.27
61537;BME280;48695;53.480;-6.300;2022-12-18T00:56:21;100836.00;;;5.26;69.30
61537;BME280;48695;53.480;-6.300;2022-12-18T00:58:47;100820.47;;;5.31;69.89
61537;BME280;48695;53.480;-6.300;2022-12-18T01:01:13;100814.44;;;5.36;69.50
61537;BME280;48695;53.480;-6.300;2022-12-18T01:03:38;100809.28;;;5.38;69.58
61537;BME280;48695;53.480;-6.300;2022-12-18T01:06:09;100814.44;;;5.45;69.64
61537;BME280;48695;53.480;-6.300;2022-12-18T01:08:35;100806.69;;;5.39;69.68
61537;BME280;48695;53.480;-6.300;2022-12-18T01:11:10;100815.31;;;5.54;69.52
61537;BME280;48695;53.480;-6.300;2022-12-18T01:13:37;100804.97;;;5.54;69.98
61537;BME280;48695;53.480;-6.300;2022-12-18T01:16:02;100801.47;;;5.61;69.82
61537;BME280;48695;53.480;-6.300;2022-12-18T01:18:28;100792.84;;;5.62;69.75
61537;BME280;48695;53.480;-6.300;2022-12-18T01:20:53;100789.38;;;5.66;69.83
61537;BME280;48695;53.480;-6.300;2022-12-18T01:23:19;100789.41;;;5.69;69.95
61537;BME280;48695;53.480;-6.300;2022-12-18T01:25:44;100785.06;;;5.76;70.16
61537;BME280;48695;53.480;-6.300;2022-12-18T01:28:10;100782.47;;;5.77;69.94
61537;BME280;48695;53.480;-6.300;2022-12-18T01:30:36;100760.03;;;5.70;69.65
61537;BME280;48695;53.480;-6.300;2022-12-18T01:33:04;100781.59;;;5.84;69.69
61537;BME280;48695;53.480;-6.300;2022-12-18T01:35:29;100780.72;;;5.82;69.67
61537;BME280;48695;53.480;-6.300;2022-12-18T01:37:55;100785.91;;;5.85;69.90
61537;BME280;48695;53.480;-6.300;2022-12-18T01:40:21;100778.97;;;5.87;69.90
61537;BME280;48695;53.480;-6.300;2022-12-18T01:42:53;100783.34;;;5.91;69.90
61537;BME280;48695;53.480;-6.300;2022-12-18T01:45:26;100764.31;;;5.92;69.83
61537;BME280;48695;53.480;-6.300;2022-12-18T01:47:58;100758.28;;;5.93;70.15
61537;BME280;48695;53.480;-6.300;2022-12-18T01:52:59;100739.28;;;5.91;69.97
61537;BME280;48695;53.480;-6.300;2022-12-18T01:55:28;100731.47;;;5.93;69.79
61537;BME280;48695;53.480;-6.300;2022-12-18T01:57:56;100731.47;;;5.93;69.86
61537;BME280;48695;53.480;-6.300;2022-12-18T02:00:23;100728.91;;;5.91;69.69
61537;BME280;48695;53.480;-6.300;2022-12-18T02:02:49;100708.16;;;5.85;69.45
61537;BME280;48695;53.480;-6.300;2022-12-18T02:05:19;100719.41;;;5.92;69.61
61537;BME280;48695;53.480;-6.300;2022-12-18T02:18:16;100699.53;;;5.89;70.25
61537;BME280;48695;53.480;-6.300;2022-12-18T02:20:52;100692.63;;;5.85;70.05
61537;BME280;48695;53.480;-6.300;2022-12-18T02:23:50;100706.47;;;5.93;69.07
61537;BME280;48695;53.480;-6.300;2022-12-18T02:26:30;100684.00;;;5.83;69.10
61537;BME280;48695;53.480;-6.300;2022-12-18T02:29:03;100710.72;;;5.97;69.39
61537;BME280;48695;53.480;-6.300;2022-12-18T02:31:37;100687.44;;;5.94;69.78
61537;BME280;48695;53.480;-6.300;2022-12-18T02:34:06;100694.34;;;5.98;69.83
61537;BME280;48695;53.480;-6.300;2022-12-18T02:36:34;100690.00;;;6.04;69.28
61537;BME280;48695;53.480;-6.300;2022-12-18T02:39:01;100691.66;;;6.12;68.41
61537;BME280;48695;53.480;-6.300;2022-12-18T02:41:28;100681.31;;;6.08;68.93
61537;BME280;48695;53.480;-6.300;2022-12-18T02:43:58;100689.09;;;6.14;69.24
61537;BME280;48695;53.480;-6.300;2022-12-18T02:48:57;100689.06;;;6.20;68.71
61537;BME280;48695;53.480;-6.300;2022-12-18T02:51:32;100689.00;;;6.26;69.22
61537;BME280;48695;53.480;-6.300;2022-12-18T02:54:10;100680.34;;;6.27;68.82
61537;BME280;48695;53.480;-6.300;2022-12-18T02:56:49;100677.72;;;6.33;69.26
61537;BME280;48695;53.480;-6.300;2022-12-18T02:59:19;100657.88;;;6.29;69.53
61537;BME280;48695;53.480;-6.300;2022-12-18T03:01:59;100667.34;;;6.39;69.48
61537;BME280;48695;53.480;-6.300;2022-12-18T03:04:52;100649.13;;;6.45;68.84
61537;BME280;48695;53.480;-6.300;2022-12-18T03:07:26;100646.50;;;6.50;69.46
61537;BME280;48695;53.480;-6.300;2022-12-18T03:09:53;100636.09;;;6.55;69.36
61537;BME280;48695;53.480;-6.300;2022-12-18T03:12:27;100636.94;;;6.60;69.81
61537;BME280;48695;53.480;-6.300;2022-12-18T03:15:09;100613.53;;;6.66;69.40
61537;BME280;48695;53.480;-6.300;2022-12-18T03:17:36;100605.75;;;6.66;69.57
61537;BME280;48695;53.480;-6.300;2022-12-18T03:20:07;100602.22;;;6.73;69.44
61537;BME280;48695;53.480;-6.300;2022-12-18T03:22:36;100602.16;;;6.79;69.17
61537;BME280;48695;53.480;-6.300;2022-12-18T03:25:06;100602.13;;;6.85;69.63
61537;BME280;48695;53.480;-6.300;2022-12-18T03:27:36;100599.50;;;6.87;69.51
61537;BME280;48695;53.480;-6.300;2022-12-18T03:30:07;100586.50;;;6.88;69.53
61537;BME280;48695;53.480;-6.300;2022-12-18T03:33:21;100581.25;;;6.96;69.46
61537;BME280;48695;53.480;-6.300;2022-12-18T03:35:31;100572.56;;;6.98;69.20
61537;BME280;48695;53.480;-6.300;2022-12-18T03:37:58;100563.88;;;7.02;69.54
61537;BME280;48695;53.480;-6.300;2022-12-18T03:41:16;100530.28;;;6.87;69.16
61537;BME280;48695;53.480;-6.300;2022-12-18T03:43:24;100563.78;;;7.12;69.32
61537;BME280;48695;53.480;-6.300;2022-12-18T03:46:02;100570.66;;;7.14;68.85
61537;BME280;48695;53.480;-6.300;2022-12-18T03:48:34;100555.19;;;7.03;68.88
61537;BME280;48695;53.480;-6.300;2022-12-18T03:51:09;100556.88;;;7.08;68.78
61537;BME280;48695;53.480;-6.300;2022-12-18T03:53:39;100571.53;;;7.13;68.80
61537;BME280;48695;53.480;-6.300;2022-12-18T03:56:08;100518.19;;;6.86;68.34
61537;BME280;48695;53.480;-6.300;2022-12-18T03:58:35;100572.41;;;7.15;68.68
61537;BME280;48695;53.480;-6.300;2022-12-18T04:01:03;100565.41;;;7.19;68.59
61537;BME280;48695;53.480;-6.300;2022-12-18T04:03:31;100563.75;;;7.15;68.39
61537;BME280;48695;53.480;-6.300;2022-12-18T04:05:59;100534.41;;;7.07;67.92
61537;BME280;48695;53.480;-6.300;2022-12-18T04:08:25;100537.72;;;7.18;67.84
61537;BME280;48695;53.480;-6.300;2022-12-18T04:10:51;100543.84;;;7.15;68.04
61537;BME280;48695;53.480;-6.300;2022-12-18T04:13:32;100529.97;;;7.16;68.23
61537;BME280;48695;53.480;-6.300;2022-12-18T04:15:58;100530.03;;;7.12;68.33
61537;BME280;48695;53.480;-6.300;2022-12-18T04:18:23;100532.63;;;7.09;68.53
61537;BME280;48695;53.480;-6.300;2022-12-18T04:20:49;100533.50;;;7.11;68.62
61537;BME280;48695;53.480;-6.300;2022-12-18T04:23:14;100529.19;;;7.10;68.37
61537;BME280;48695;53.480;-6.300;2022-12-18T04:25:39;100530.00;;;7.13;68.66
61537;BME280;48695;53.480;-6.300;2022-12-18T04:28:05;100511.00;;;7.11;68.56
61537;BME280;48695;53.480;-6.300;2022-12-18T04:30:31;100479.06;;;7.01;68.62
61537;BME280;48695;53.480;-6.300;2022-12-18T04:32:56;100504.78;;;7.23;68.63
61537;BME280;48695;53.480;-6.300;2022-12-18T04:35:21;100501.31;;;7.22;68.76
61537;BME280;48695;53.480;-6.300;2022-12-18T04:37:47;100493.44;;;7.28;68.75
61537;BME280;48695;53.480;-6.300;2022-12-18T04:40:13;100467.47;;;7.30;68.65
61537;BME280;48695;53.480;-6.300;2022-12-18T04:42:39;100484.78;;;7.31;69.21
61537;BME280;48695;53.480;-6.300;2022-12-18T04:45:05;100480.38;;;7.36;68.68
61537;BME280;48695;53.480;-6.300;2022-12-18T04:47:31;100475.19;;;7.36;68.68
61537;BME280;48695;53.480;-6.300;2022-12-18T04:49:56;100475.13;;;7.39;68.65
61537;BME280;48695;53.480;-6.300;2022-12-18T04:52:22;100475.09;;;7.42;68.62
61537;BME280;48695;53.480;-6.300;2022-12-18T04:54:47;100466.41;;;7.43;68.74
61537;BME280;48695;53.480;-6.300;2022-12-18T04:57:13;100457.75;;;7.44;68.85
61537;BME280;48695;53.480;-6.300;2022-12-18T04:59:38;100447.31;;;7.47;68.62
61537;BME280;48695;53.480;-6.300;2022-12-18T05:02:03;100441.22;;;7.48;68.73
61537;BME280;48695;53.480;-6.300;2022-12-18T05:04:29;100397.38;;;7.27;68.62
61537;BME280;48695;53.480;-6.300;2022-12-18T05:06:54;100427.38;;;7.48;69.00
61537;BME280;48695;53.480;-6.300;2022-12-18T05:09:19;100424.63;;;7.59;69.20
61537;BME280;48695;53.480;-6.300;2022-12-18T05:11:45;100436.66;;;7.66;68.68
61537;BME280;48695;53.480;-6.300;2022-12-18T05:14:11;100427.97;;;7.67;68.88
61537;BME280;48695;53.480;-6.300;2022-12-18T05:16:37;100420.13;;;7.71;69.17
61537;BME280;48695;53.480;-6.300;2022-12-18T05:19:02;100419.25;;;7.71;69.21
61537;BME280;48695;53.480;-6.300;2022-12-18T05:21:27;100401.88;;;7.73;68.83
61537;BME280;48695;53.480;-6.300;2022-12-18T05:23:53;100393.16;;;7.77;68.98
61537;BME280;48695;53.480;-6.300;2022-12-18T05:26:18;100377.59;;;7.74;68.93
61537;BME280;48695;53.480;-6.300;2022-12-18T05:28:44;100368.84;;;7.81;68.72
61537;BME280;48695;53.480;-6.300;2022-12-18T05:31:10;100391.34;;;7.82;68.80
61537;BME280;48695;53.480;-6.300;2022-12-18T05:33:35;100361.84;;;7.86;69.08
61537;BME280;48695;53.480;-6.300;2022-12-18T05:36:02;100343.75;;;7.78;69.13
61537;BME280;48695;53.480;-6.300;2022-12-18T05:38:30;100354.00;;;7.88;69.20
61537;BME280;48695;53.480;-6.300;2022-12-18T05:40:56;100351.31;;;7.92;68.56
61537;BME280;48695;53.480;-6.300;2022-12-18T05:43:22;100347.88;;;7.90;69.07
61537;BME280;48695;53.480;-6.300;2022-12-18T05:45:48;100345.28;;;7.90;69.46
61537;BME280;48695;53.480;-6.300;2022-12-18T05:48:15;100344.44;;;7.88;69.22
61537;BME280;48695;53.480;-6.300;2022-12-18T05:50:42;100334.09;;;7.87;69.38
61537;BME280;48695;53.480;-6.300;2022-12-18T05:53:08;100328.97;;;7.82;69.51
61537;BME280;48695;53.480;-6.300;2022-12-18T05:55:35;100318.66;;;7.77;70.11
61537;BME280;48695;53.480;-6.300;2022-12-18T05:58:01;100304.25;;;7.58;69.81
61537;BME280;48695;53.480;-6.300;2022-12-18T06:00:27;100320.50;;;7.71;69.81
61537;BME280;48695;53.480;-6.300;2022-12-18T06:02:52;100324.84;;;7.69;69.92
61537;BME280;48695;53.480;-6.300;2022-12-18T06:05:17;100315.34;;;7.68;69.94
61537;BME280;48695;53.480;-6.300;2022-12-18T06:07:43;100308.50;;;7.62;70.27
61537;BME280;48695;53.480;-6.300;2022-12-18T06:10:08;100298.09;;;7.64;70.31
61537;BME280;48695;53.480;-6.300;2022-12-18T06:12:34;100299.78;;;7.65;70.01
61537;BME280;48695;53.480;-6.300;2022-12-18T06:14:59;100299.75;;;7.68;69.86
61537;BME280;48695;53.480;-6.300;2022-12-18T06:17:29;100297.16;;;7.68;69.92
61537;BME280;48695;53.480;-6.300;2022-12-18T06:19:55;100275.53;;;7.66;70.08
61537;BME280;48695;53.480;-6.300;2022-12-18T06:22:20;100254.84;;;7.60;70.07
61537;BME280;48695;53.480;-6.300;2022-12-18T06:24:46;100227.31;;;7.49;69.89
61537;BME280;48695;53.480;-6.300;2022-12-18T06:27:11;100269.53;;;7.62;70.24
61537;BME280;48695;53.480;-6.300;2022-12-18T06:29:36;100228.97;;;7.53;69.69
61537;BME280;48695;53.480;-6.300;2022-12-18T06:32:02;100228.16;;;7.51;70.08
61537;BME280;48695;53.480;-6.300;2022-12-18T06:34:27;100247.81;;;7.65;70.14
61537;BME280;48695;53.480;-6.300;2022-12-18T06:36:56;100235.72;;;7.64;70.02
61537;BME280;48695;53.480;-6.300;2022-12-18T06:39:22;100220.19;;;7.61;69.97
61537;BME280;48695;53.480;-6.300;2022-12-18T06:41:47;100198.69;;;7.52;70.24
61537;BME280;48695;53.480;-6.300;2022-12-18T06:44:12;100182.25;;;7.52;69.97
61537;BME280;48695;53.480;-6.300;2022-12-18T06:46:38;100178.63;;;7.59;69.99
61537;BME280;48695;53.480;-6.300;2022-12-18T06:49:03;100188.16;;;7.59;70.09
61537;BME280;48695;53.480;-6.300;2022-12-18T06:51:29;100114.53;;;7.15;70.06
61537;BME280;48695;53.480;-6.300;2022-12-18T06:53:55;100182.28;;;7.50;70.05
61537;BME280;48695;53.480;-6.300;2022-12-18T06:56:20;100181.50;;;7.45;70.40
61537;BME280;48695;53.480;-6.300;2022-12-18T06:58:46;100192.75;;;7.44;70.87
61537;BME280;48695;53.480;-6.300;2022-12-18T07:01:12;100196.38;;;7.37;70.49
61537;BME280;48695;53.480;-6.300;2022-12-18T07:03:39;100189.38;;;7.39;70.59
61537;BME280;48695;53.480;-6.300;2022-12-18T07:06:05;100168.72;;;7.33;70.31
61537;BME280;48695;53.480;-6.300;2022-12-18T07:08:31;100169.66;;;7.29;70.41
61537;BME280;48695;53.480;-6.300;2022-12-18T07:10:57;100174.84;;;7.31;70.22
61537;BME280;48695;53.480;-6.300;2022-12-18T07:13:23;100171.47;;;7.24;70.21
61537;BME280;48695;53.480;-6.300;2022-12-18T07:15:49;100183.59;;;7.23;70.46
61537;BME280;48695;53.480;-6.300;2022-12-18T07:18:14;100176.00;;;7.13;69.74
61537;BME280;48695;53.480;-6.300;2022-12-18T07:20:40;100173.34;;;7.17;70.26
61537;BME280;48695;53.480;-6.300;2022-12-18T07:23:05;100157.94;;;7.07;70.15
61537;BME280;48695;53.480;-6.300;2022-12-18T07:25:37;100177.69;;;7.17;69.67
61537;BME280;48695;53.480;-6.300;2022-12-18T07:28:03;100171.69;;;7.12;69.66
61537;BME280;48695;53.480;-6.300;2022-12-18T07:30:29;100159.66;;;7.08;69.59
61537;BME280;48695;53.480;-6.300;2022-12-18T07:32:54;100130.47;;;6.93;69.14
61537;BME280;48695;53.480;-6.300;2022-12-18T07:35:20;100144.19;;;7.01;69.64
61537;BME280;48695;53.480;-6.300;2022-12-18T07:37:45;100137.38;;;6.94;69.44
61537;BME280;48695;53.480;-6.300;2022-12-18T07:40:11;100131.16;;;7.05;69.16
61537;BME280;48695;53.480;-6.300;2022-12-18T07:42:36;100107.00;;;7.01;69.09
61537;BME280;48695;53.480;-6.300;2022-12-18T07:45:03;100099.19;;;7.01;69.27
61537;BME280;48695;53.480;-6.300;2022-12-18T07:47:28;100084.44;;;7.03;69.02
61537;BME280;48695;53.480;-6.300;2022-12-18T07:49:54;100054.31;;;6.94;69.36
61537;BME280;48695;53.480;-6.300;2022-12-18T07:52:20;100063.66;;;7.05;69.40
61537;BME280;48695;53.480;-6.300;2022-12-18T07:54:45;100067.97;;;7.06;69.54
61537;BME280;48695;53.480;-6.300;2022-12-18T07:57:13;100027.25;;;7.08;69.22
61537;BME280;48695;53.480;-6.300;2022-12-18T07:59:39;100018.81;;;6.96;69.22
61537;BME280;48695;53.480;-6.300;2022-12-18T08:02:04;100030.59;;;7.13;69.10
61537;BME280;48695;53.480;-6.300;2022-12-18T08:04:30;100008.09;;;7.15;69.15
61537;BME280;48695;53.480;-6.300;2022-12-18T08:06:55;100016.66;;;7.18;69.18
61537;BME280;48695;53.480;-6.300;2022-12-18T08:09:20;100010.59;;;7.18;69.18
61537;BME280;48695;53.480;-6.300;2022-12-18T08:11:46;99983.75;;;7.19;69.33
61537;BME280;48695;53.480;-6.300;2022-12-18T08:14:11;99982.03;;;7.18;69.29
61537;BME280;48695;53.480;-6.300;2022-12-18T08:16:37;99981.28;;;7.13;69.08
61537;BME280;48695;53.480;-6.300;2022-12-18T08:19:02;100005.22;;;7.27;69.31
61537;BME280;48695;53.480;-6.300;2022-12-18T08:21:30;99980.34;;;7.17;69.13
61537;BME280;48695;53.480;-6.300;2022-12-18T08:24:00;99998.34;;;7.26;69.21
61537;BME280;48695;53.480;-6.300;2022-12-18T08:26:28;99974.25;;;7.18;69.22
61537;BME280;48695;53.480;-6.300;2022-12-18T08:28:57;99964.50;;;7.29;69.26
61537;BME280;48695;53.480;-6.300;2022-12-18T08:31:23;99966.13;;;7.33;68.76
61537;BME280;48695;53.480;-6.300;2022-12-18T08:33:50;99955.75;;;7.33;69.00
61537;BME280;48695;53.480;-6.300;2022-12-18T08:36:16;99954.19;;;7.26;69.15
61537;BME280;48695;53.480;-6.300;2022-12-18T08:38:42;99959.19;;;7.35;68.91
61537;BME280;48695;53.480;-6.300;2022-12-18T08:41:10;99934.97;;;7.33;69.47
61537;BME280;48695;53.480;-6.300;2022-12-18T08:43:36;99941.06;;;7.32;69.09
61537;BME280;48695;53.480;-6.300;2022-12-18T08:46:21;99927.22;;;7.32;69.59
61537;BME280;48695;53.480;-6.300;2022-12-18T08:48:48;99915.13;;;7.31;69.83
61537;BME280;48695;53.480;-6.300;2022-12-18T08:51:15;99924.59;;;7.33;69.16
61537;BME280;48695;53.480;-6.300;2022-12-18T08:53:41;99905.75;;;7.25;69.54
61537;BME280;48695;53.480;-6.300;2022-12-18T08:56:07;99910.78;;;7.31;70.10
61537;BME280;48695;53.480;-6.300;2022-12-18T08:58:32;99903.19;;;7.22;70.18
61537;BME280;48695;53.480;-6.300;2022-12-18T09:01:04;99917.69;;;7.32;70.21
61537;BME280;48695;53.480;-6.300;2022-12-18T09:03:30;99909.84;;;7.34;70.24
61537;BME280;48695;53.480;-6.300;2022-12-18T09:05:56;99901.25;;;7.32;70.24
61537;BME280;48695;53.480;-6.300;2022-12-18T09:08:22;99921.09;;;7.34;70.63
61537;BME280;48695;53.480;-6.300;2022-12-18T09:10:48;99924.50;;;7.38;70.44
61537;BME280;48695;53.480;-6.300;2022-12-18T09:13:14;99856.84;;;7.05;70.83
61537;BME280;48695;53.480;-6.300;2022-12-18T09:15:45;99908.06;;;7.37;70.80
61537;BME280;48695;53.480;-6.300;2022-12-18T09:18:12;99891.72;;;7.32;70.73
61537;BME280;48695;53.480;-6.300;2022-12-18T09:20:38;99896.78;;;7.38;71.39
61537;BME280;48695;53.480;-6.300;2022-12-18T09:23:04;99888.13;;;7.38;71.33
61537;BME280;48695;53.480;-6.300;2022-12-18T09:25:30;99901.91;;;7.41;71.39
61537;BME280;48695;53.480;-6.300;2022-12-18T09:28:11;99877.59;;;7.44;71.20
61537;BME280;48695;53.480;-6.300;2022-12-18T09:30:43;99900.06;;;7.45;71.34
61537;BME280;48695;53.480;-6.300;2022-12-18T09:33:09;99851.72;;;7.39;71.10
61537;BME280;48695;53.480;-6.300;2022-12-18T09:35:39;99857.56;;;7.49;71.82
61537;BME280;48695;53.480;-6.300;2022-12-18T09:38:06;99787.72;;;7.01;71.96
61537;BME280;48695;53.480;-6.300;2022-12-18T09:40:41;99860.00;;;7.57;71.96
61537;BME280;48695;53.480;-6.300;2022-12-18T09:43:20;99828.88;;;7.53;72.14
61537;BME280;48695;53.480;-6.300;2022-12-18T09:45:52;99854.69;;;7.60;72.17
61537;BME280;48695;53.480;-6.300;2022-12-18T09:48:27;99840.84;;;7.61;72.21
61537;BME280;48695;53.480;-6.300;2022-12-18T09:51:00;99820.34;;;7.48;72.32
61537;BME280;48695;53.480;-6.300;2022-12-18T09:53:30;99839.19;;;7.57;72.48
61537;BME280;48695;53.480;-6.300;2022-12-18T09:55:57;99851.22;;;7.61;72.51
61537;BME280;48695;53.480;-6.300;2022-12-18T09:58:36;99841.50;;;7.69;72.22
61537;BME280;48695;53.480;-6.300;2022-12-18T10:01:02;99836.41;;;7.64;72.43
61537;BME280;48695;53.480;-6.300;2022-12-18T10:03:33;99812.09;;;7.67;72.29
61537;BME280;48695;53.480;-6.300;2022-12-18T10:06:14;99849.13;;;7.75;72.24
61537;BME280;48695;53.480;-6.300;2022-12-18T10:14:11;99831.69;;;7.80;72.33
61537;BME280;48695;53.480;-6.300;2022-12-18T10:20:01;99766.34;;;7.61;72.39
61537;BME280;48695;53.480;-6.300;2022-12-18T10:25:28;99789.97;;;7.86;72.41
61537;BME280;48695;53.480;-6.300;2022-12-18T10:28:06;99794.31;;;7.86;72.54
61537;BME280;48695;53.480;-6.300;2022-12-18T10:30:32;99777.06;;;7.82;72.73
61537;BME280;48695;53.480;-6.300;2022-12-18T10:33:04;99769.16;;;7.86;72.30
61537;BME280;48695;53.480;-6.300;2022-12-18T10:35:29;99769.16;;;7.86;72.79
61537;BME280;48695;53.480;-6.300;2022-12-18T10:38:07;99746.06;;;7.74;72.51
61537;BME280;48695;53.480;-6.300;2022-12-18T10:41:02;99752.63;;;7.89;72.82
61537;BME280;48695;53.480;-6.300;2022-12-18T10:43:33;99741.28;;;7.91;72.77
61537;BME280;48695;53.480;-6.300;2022-12-18T10:46:08;99743.00;;;7.92;72.92
61537;BME280;48695;53.480;-6.300;2022-12-18T10:48:40;99741.28;;;7.91;72.78
61537;BME280;48695;53.480;-6.300;2022-12-18T10:51:28;99737.69;;;7.95;72.91
61537;BME280;48695;53.480;-6.300;2022-12-18T10:54:06;99722.94;;;7.97;72.81
61537;BME280;48695;53.480;-6.300;2022-12-18T10:56:34;99710.09;;;7.91;72.84
61537;BME280;48695;53.480;-6.300;2022-12-18T10:59:06;99732.34;;;8.01;72.83
61537;BME280;48695;53.480;-6.300;2022-12-18T11:04:26;99699.28;;;8.06;73.48
61537;BME280;48695;53.480;-6.300;2022-12-18T11:09:26;99676.66;;;8.09;73.00
61537;BME280;48695;53.480;-6.300;2022-12-18T11:11:53;99652.47;;;8.06;73.42
61537;BME280;48695;53.480;-6.300;2022-12-18T11:14:34;99672.91;;;8.19;73.10
61537;BME280;48695;53.480;-6.300;2022-12-18T11:17:21;99677.13;;;8.23;72.83
61537;BME280;48695;53.480;-6.300;2022-12-18T11:19:58;99646.72;;;8.25;73.07
61537;BME280;48695;53.480;-6.300;2022-12-18T11:22:28;99628.56;;;8.23;73.57
61537;BME280;48695;53.480;-6.300;2022-12-18T11:25:16;99637.03;;;8.30;72.93
61537;BME280;48695;53.480;-6.300;2022-12-18T11:27:49;99627.56;;;8.27;73.30
61537;BME280;48695;53.480;-6.300;2022-12-18T11:30:29;99626.44;;;8.38;73.24
61537;BME280;48695;53.480;-6.300;2022-12-18T11:33:09;99613.38;;;8.39;72.98
61537;BME280;48695;53.480;-6.300;2022-12-18T11:38:23;99601.13;;;8.43;73.55
61537;BME280;48695;53.480;-6.300;2022-12-18T11:40:55;99597.66;;;8.42;73.30
61537;BME280;48695;53.480;-6.300;2022-12-18T11:43:32;99594.38;;;8.37;73.24
61537;BME280;48695;53.480;-6.300;2022-12-18T11:46:06;99607.88;;;8.48;73.76
61537;BME280;48695;53.480;-6.300;2022-12-18T11:48:43;99572.22;;;8.52;73.92
61537;BME280;48695;53.480;-6.300;2022-12-18T11:51:14;99574.75;;;8.53;73.92
61537;BME280;48695;53.480;-6.300;2022-12-18T11:53:43;99555.72;;;8.51;74.00
61537;BME280;48695;53.480;-6.300;2022-12-18T12:07:18;99521.78;;;8.81;73.86
61537;BME280;48695;53.480;-6.300;2022-12-18T12:12:51;99498.94;;;8.89;74.45
61537;BME280;48695;53.480;-6.300;2022-12-18T12:18:13;99487.31;;;8.99;73.97
61537;BME280;48695;53.480;-6.300;2022-12-18T12:23:36;99472.25;;;9.07;74.27
61537;BME280;48695;53.480;-6.300;2022-12-18T12:26:12;99446.00;;;9.14;74.51
61537;BME280;48695;53.480;-6.300;2022-12-18T12:28:51;99451.06;;;9.17;74.54
61537;BME280;48695;53.480;-6.300;2022-12-18T12:34:29;99447.09;;;9.30;74.30
61537;BME280;48695;53.480;-6.300;2022-12-18T12:37:02;99439.13;;;9.34;74.29
61537;BME280;48695;53.480;-6.300;2022-12-18T12:39:37;99419.03;;;9.38;74.43
61537;BME280;48695;53.480;-6.300;2022-12-18T12:42:16;99416.19;;;9.44;74.21
61537;BME280;48695;53.480;-6.300;2022-12-18T12:45:05;99405.69;;;9.46;74.40
61537;BME280;48695;53.480;-6.300;2022-12-18T12:47:35;99398.59;;;9.49;74.54
61537;BME280;48695;53.480;-6.300;2022-12-18T12:50:12;99393.16;;;9.55;74.24
61537;BME280;48695;53.480;-6.300;2022-12-18T12:52:45;99376.34;;;9.62;74.63
61537;BME280;48695;53.480;-6.300;2022-12-18T12:55:18;99364.13;;;9.65;74.62
61537;BME280;48695;53.480;-6.300;2022-12-18T12:57:51;99369.06;;;9.71;74.78
61537;BME280;48695;53.480;-6.300;2022-12-18T13:00:20;99355.19;;;9.70;74.71
61537;BME280;48695;53.480;-6.300;2022-12-18T13:03:32;99371.16;;;9.83;74.22
61537;BME280;48695;53.480;-6.300;2022-12-18T13:06:08;99363.13;;;9.89;74.04
61537;BME280;48695;53.480;-6.300;2022-12-18T13:09:12;99362.69;;;10.00;74.19
61537;BME280;48695;53.480;-6.300;2022-12-18T13:11:42;99324.66;;;9.94;74.20
61537;BME280;48695;53.480;-6.300;2022-12-18T13:14:33;99336.25;;;10.07;74.26
61537;BME280;48695;53.480;-6.300;2022-12-18T13:20:03;99315.38;;;10.07;74.09
61537;BME280;48695;53.480;-6.300;2022-12-18T13:22:33;99323.47;;;10.22;74.22
61537;BME280;48695;53.480;-6.300;2022-12-18T13:24:59;99324.25;;;10.25;74.00
61537;BME280;48695;53.480;-6.300;2022-12-18T13:35:42;99305.09;;;10.45;73.91
61537;BME280;48695;53.480;-6.300;2022-12-18T13:43:42;99275.81;;;10.57;73.35
61537;BME280;48695;53.480;-6.300;2022-12-18T13:51:39;99277.19;;;10.66;73.67
61537;BME280;48695;53.480;-6.300;2022-12-18T13:54:34;99251.41;;;10.58;73.17
61537;BME280;48695;53.480;-6.300;2022-12-18T13:57:01;99266.53;;;10.71;73.54
61537;BME280;48695;53.480;-6.300;2022-12-18T13:59:39;99249.84;;;10.73;73.18
61537;BME280;48695;53.480;-6.300;2022-12-18T14:02:20;99274.19;;;10.74;73.26
61537;BME280;48695;53.480;-6.300;2022-12-18T14:04:47;99255.03;;;10.75;73.45
61537;BME280;48695;53.480;-6.300;2022-12-18T14:07:18;99254.88;;;10.78;73.67
61537;BME280;48695;53.480;-6.300;2022-12-18T14:09:55;99234.78;;;10.80;73.56
61537;BME280;48695;53.480;-6.300;2022-12-18T14:12:30;99219.44;;;10.72;73.74
61537;BME280;48695;53.480;-6.300;2022-12-18T14:15:26;99225.94;;;10.82;73.64
61537;BME280;48695;53.480;-6.300;2022-12-18T14:17:58;99221.41;;;10.86;73.46
61537;BME280;48695;53.480;-6.300;2022-12-18T14:20:26;99213.00;;;10.79;73.51
61537;BME280;48695;53.480;-6.300;2022-12-18T14:22:52;99215.91;;;10.92;73.29
61537;BME280;48695;53.480;-6.300;2022-12-18T14:25:23;99212.53;;;10.90;73.63
61537;BME280;48695;53.480;-6.300;2022-12-18T14:30:27;99227.59;;;11.02;72.82